Time;durP1;ratioP1;P1;durP2;ratioP2;P2;SDS_P1;SDS_P2;PMS_P1;PMS_P2;Temp;Humidity;BMP_temperature;BMP_pressure;BME280_temperature;BME280_humidity;BME280_pressure;Samples;Min_cycle;Max_cycle;Signal;HPM_P1;HPM_P2
2021/04/30 00:00:10;;;;;;;5.50;2.72;;;18.70;34.90;;;;;;5095089;28;20024;-63
2021/04/30 00:02:36;;;;;;;6.45;2.33;;;18.60;34.90;;;;;;5094863;28;20024;-64
2021/04/30 00:05:03;;;;;;;6.72;2.53;;;18.60;34.90;;;;;;5094669;28;20020;-63
2021/04/30 00:07:29;;;;;;;7.00;2.47;;;18.60;34.90;;;;;;5094505;28;20024;-63
2021/04/30 00:09:54;;;;;;;9.80;2.58;;;18.60;35.00;;;;;;5094770;28;20391;-65
2021/04/30 00:12:20;;;;;;;5.97;2.75;;;18.60;35.00;;;;;;5094746;28;20020;-64
2021/04/30 00:14:46;;;;;;;5.88;2.60;;;18.60;35.00;;;;;;5094479;28;20095;-63
2021/04/30 00:17:11;;;;;;;5.55;2.63;;;18.60;35.00;;;;;;5094555;28;20039;-64
2021/04/30 00:19:36;;;;;;;6.00;2.97;;;18.60;35.00;;;;;;5094406;28;20108;-63
2021/04/30 00:22:02;;;;;;;7.15;3.22;;;18.60;35.00;;;;;;5094321;28;20085;-64
2021/04/30 00:24:28;;;;;;;6.22;2.95;;;18.50;35.10;;;;;;5094370;28;20115;-63
2021/04/30 00:26:53;;;;;;;6.45;2.83;;;18.50;35.00;;;;;;5094305;28;20028;-63
2021/04/30 00:29:19;;;;;;;6.47;2.90;;;18.50;35.00;;;;;;5094193;28;20024;-64
2021/04/30 00:31:44;;;;;;;7.40;2.70;;;18.50;35.10;;;;;;5094090;28;20036;-64
2021/04/30 00:34:10;;;;;;;5.95;2.50;;;18.50;35.00;;;;;;5093879;28;20027;-64
2021/04/30 00:36:36;;;;;;;5.82;2.95;;;18.60;35.10;;;;;;5094064;28;20026;-64
2021/04/30 00:39:02;;;;;;;6.90;3.00;;;18.60;35.00;;;;;;5093426;28;20024;-65
2021/04/30 00:41:28;;;;;;;7.05;2.92;;;18.60;35.00;;;;;;5094329;28;20099;-64
2021/04/30 00:43:54;;;;;;;6.32;3.00;;;18.50;35.10;;;;;;5093963;28;20028;-64
2021/04/30 00:46:19;;;;;;;6.65;3.30;;;18.60;35.10;;;;;;5093756;28;20081;-64
2021/04/30 00:48:45;;;;;;;7.28;3.13;;;18.50;35.10;;;;;;5093999;28;20032;-64
2021/04/30 00:51:11;;;;;;;5.53;2.70;;;18.60;35.10;;;;;;5093838;28;20458;-64
2021/04/30 00:53:36;;;;;;;5.75;2.90;;;18.50;35.10;;;;;;5093680;28;20102;-64
2021/04/30 00:56:02;;;;;;;8.40;2.83;;;18.50;35.10;;;;;;5092513;28;20089;-65
2021/04/30 00:58:27;;;;;;;5.93;2.80;;;18.50;35.10;;;;;;5093790;28;20024;-65
2021/04/30 01:00:54;;;;;;;7.28;3.00;;;18.50;35.10;;;;;;5093883;28;20032;-65
2021/04/30 01:03:20;;;;;;;6.68;2.75;;;18.50;35.20;;;;;;5093720;28;20027;-65
2021/04/30 01:05:45;;;;;;;6.18;2.97;;;18.50;35.20;;;;;;5094246;28;20024;-65
2021/04/30 01:08:11;;;;;;;5.43;2.95;;;18.50;35.20;;;;;;5092385;28;20492;-65
2021/04/30 01:10:37;;;;;;;7.22;3.35;;;18.50;35.20;;;;;;5092334;28;20051;-65
2021/04/30 01:13:03;;;;;;;8.40;3.63;;;18.50;35.20;;;;;;5093694;28;20032;-64
2021/04/30 01:15:29;;;;;;;7.38;3.45;;;18.50;35.20;;;;;;5093725;28;20028;-64
2021/04/30 01:17:54;;;;;;;6.95;3.08;;;18.50;35.20;;;;;;5093459;28;20058;-64
2021/04/30 01:20:20;;;;;;;6.38;3.20;;;18.60;35.20;;;;;;5093583;28;20032;-64
2021/04/30 01:22:48;;;;;;;7.93;3.35;;;18.60;35.20;;;;;;5093115;28;20055;-64
2021/04/30 01:25:25;;;;;;;7.18;2.97;;;18.50;35.20;;;;;;5093440;28;20507;-64
2021/04/30 01:27:50;;;;;;;6.47;3.13;;;18.50;35.10;;;;;;5094256;28;20032;-66
2021/04/30 01:30:24;;;;;;;7.82;2.97;;;18.50;35.10;;;;;;5093891;28;20032;-63
2021/04/30 01:32:50;;;;;;;9.53;3.50;;;18.50;35.20;;;;;;5092742;28;20024;-64
2021/04/30 01:35:23;;;;;;;6.88;3.35;;;18.60;35.20;;;;;;5093658;28;20266;-64
2021/04/30 01:37:50;;;;;;;6.70;3.08;;;18.50;35.20;;;;;;5093102;28;20066;-64
2021/04/30 01:40:20;;;;;;;6.97;3.10;;;18.60;35.20;;;;;;5093367;28;20039;-64
2021/04/30 01:43:03;;;;;;;7.05;3.08;;;18.50;35.20;;;;;;5093227;28;20056;-65
2021/04/30 01:45:32;;;;;;;7.18;3.60;;;18.50;35.20;;;;;;5093314;28;20116;-64
2021/04/30 01:47:58;;;;;;;6.88;3.13;;;18.50;35.20;;;;;;5093100;28;20040;-64
2021/04/30 01:50:24;;;;;;;6.60;3.03;;;18.50;35.20;;;;;;5094297;28;20380;-64
2021/04/30 01:52:49;;;;;;;6.40;3.42;;;18.50;35.20;;;;;;5097731;28;20069;-64
2021/04/30 01:55:15;;;;;;;6.03;3.10;;;18.50;35.30;;;;;;5096945;28;20024;-64
2021/04/30 01:57:46;;;;;;;7.63;3.42;;;18.50;35.30;;;;;;5097334;28;20222;-64
2021/04/30 02:00:24;;;;;;;8.15;3.70;;;18.50;35.30;;;;;;5097080;28;20044;-63
2021/04/30 02:02:51;;;;;;;7.38;3.78;;;18.50;35.30;;;;;;5097474;28;20039;-64
2021/04/30 02:05:18;;;;;;;9.00;3.28;;;18.50;35.30;;;;;;5097127;28;20107;-64
2021/04/30 02:07:43;;;;;;;5.78;2.78;;;18.50;35.30;;;;;;5097078;28;20071;-64
2021/04/30 02:10:15;;;;;;;6.93;3.63;;;18.50;35.30;;;;;;5096959;28;20016;-63
2021/04/30 02:12:40;;;;;;;5.72;2.95;;;18.50;35.40;;;;;;5097048;28;20020;-64
2021/04/30 02:15:09;;;;;;;7.30;3.20;;;18.50;35.40;;;;;;5096791;28;20491;-64
2021/04/30 02:17:36;;;;;;;8.48;3.38;;;18.50;35.30;;;;;;5096776;28;20028;-64
2021/04/30 02:20:06;;;;;;;7.47;3.28;;;18.50;35.30;;;;;;5097070;28;20023;-64
2021/04/30 02:22:31;;;;;;;6.88;3.22;;;18.50;35.40;;;;;;5096807;28;20047;-66
2021/04/30 02:24:57;;;;;;;6.82;3.55;;;18.50;35.40;;;;;;5097225;28;20020;-65
2021/04/30 02:27:23;;;;;;;6.47;3.40;;;18.50;35.40;;;;;;5096859;28;20024;-64
2021/04/30 02:29:50;;;;;;;6.82;3.38;;;18.50;35.40;;;;;;5096565;28;20034;-65
2021/04/30 02:32:15;;;;;;;9.05;3.58;;;18.50;35.40;;;;;;5096655;28;20012;-63
2021/04/30 02:34:41;;;;;;;6.68;3.22;;;18.50;35.40;;;;;;5097016;28;20454;-63
2021/04/30 02:37:06;;;;;;;7.18;3.40;;;18.50;35.40;;;;;;5096766;28;20467;-64
2021/04/30 02:39:32;;;;;;;7.57;3.38;;;18.50;35.40;;;;;;5096694;28;20058;-63
2021/04/30 02:41:58;;;;;;;7.03;3.05;;;18.50;35.40;;;;;;5095152;28;20047;-64
2021/04/30 02:44:24;;;;;;;6.50;3.33;;;18.50;35.40;;;;;;5096336;28;20077;-64
2021/04/30 02:46:50;;;;;;;6.13;3.15;;;18.50;35.40;;;;;;5096311;28;20380;-64
2021/04/30 02:49:17;;;;;;;7.60;3.70;;;18.50;35.40;;;;;;5096230;28;20032;-64
2021/04/30 02:51:43;;;;;;;8.27;3.40;;;18.50;35.50;;;;;;5096340;28;20027;-65
2021/04/30 02:54:08;;;;;;;6.35;3.00;;;18.50;35.50;;;;;;5096193;28;20379;-64
2021/04/30 02:56:35;;;;;;;8.57;3.92;;;18.50;35.40;;;;;;5096363;28;20115;-64
2021/04/30 02:59:04;;;;;;;7.28;3.67;;;18.50;35.50;;;;;;5096436;28;20030;-64
2021/04/30 03:01:30;;;;;;;6.60;3.08;;;18.40;35.50;;;;;;5096472;28;20035;-64
2021/04/30 03:03:55;;;;;;;6.60;3.20;;;18.50;35.50;;;;;;5096014;28;20150;-64
2021/04/30 03:06:21;;;;;;;6.80;3.38;;;18.40;35.50;;;;;;5096063;28;20115;-64
2021/04/30 03:08:52;;;;;;;7.35;3.67;;;18.50;35.50;;;;;;5095744;28;20040;-64
2021/04/30 03:11:18;;;;;;;6.88;3.13;;;18.40;35.60;;;;;;5095996;28;20034;-65
2021/04/30 03:13:44;;;;;;;6.45;3.10;;;18.40;35.50;;;;;;5094696;28;20426;-64
2021/04/30 03:16:09;;;;;;;7.03;3.22;;;18.40;35.50;;;;;;5095802;28;20032;-64
2021/04/30 03:18:35;;;;;;;6.95;3.28;;;18.40;35.60;;;;;;5095804;28;20036;-64
2021/04/30 03:21:00;;;;;;;6.30;3.53;;;18.40;35.60;;;;;;5095933;28;20085;-64
2021/04/30 03:23:26;;;;;;;6.20;2.70;;;18.40;35.60;;;;;;5095733;28;20108;-64
2021/04/30 03:25:51;;;;;;;6.45;3.35;;;18.40;35.60;;;;;;5095523;28;20380;-64
2021/04/30 03:28:17;;;;;;;8.30;3.45;;;18.40;35.60;;;;;;5095165;28;20028;-64
2021/04/30 03:30:42;;;;;;;9.43;3.35;;;18.40;35.60;;;;;;5095601;28;20031;-64
2021/04/30 03:33:08;;;;;;;6.93;3.35;;;18.40;35.70;;;;;;5095383;28;20024;-64
2021/04/30 03:35:33;;;;;;;7.13;3.22;;;18.40;35.70;;;;;;5095492;28;20412;-64
2021/04/30 03:38:00;;;;;;;6.95;3.00;;;18.40;35.60;;;;;;5095695;28;20043;-64
2021/04/30 03:40:26;;;;;;;6.50;3.20;;;18.40;35.60;;;;;;5095339;28;20511;-64
2021/04/30 03:42:51;;;;;;;7.00;3.25;;;18.40;35.60;;;;;;5095218;28;20024;-64
2021/04/30 03:45:17;;;;;;;8.20;3.15;;;18.40;35.60;;;;;;5095005;28;20035;-64
2021/04/30 03:47:42;;;;;;;6.95;3.10;;;18.40;35.70;;;;;;5094934;28;20043;-64
2021/04/30 03:50:08;;;;;;;6.22;3.03;;;18.40;35.60;;;;;;5095440;28;20030;-64
2021/04/30 03:52:34;;;;;;;6.82;3.20;;;18.40;35.70;;;;;;5095043;28;20020;-64
2021/04/30 03:55:00;;;;;;;7.22;3.13;;;18.40;35.60;;;;;;5095076;28;20078;-63
2021/04/30 03:57:25;;;;;;;6.35;3.10;;;18.40;35.70;;;;;;5095468;28;20020;-64
2021/04/30 03:59:51;;;;;;;8.77;3.97;;;18.40;35.70;;;;;;5095212;28;20034;-64
2021/04/30 04:02:17;;;;;;;7.95;3.50;;;18.40;35.70;;;;;;5095120;28;20356;-64
2021/04/30 04:04:42;;;;;;;6.93;3.17;;;18.40;35.70;;;;;;5094757;28;20479;-64
2021/04/30 04:07:08;;;;;;;8.35;3.55;;;18.40;35.70;;;;;;5094803;28;20016;-64
2021/04/30 04:09:33;;;;;;;8.90;3.72;;;18.40;35.70;;;;;;5094686;28;20028;-63
2021/04/30 04:11:59;;;;;;;6.20;3.17;;;18.40;35.70;;;;;;5094768;28;20028;-64
2021/04/30 04:14:24;;;;;;;7.20;3.15;;;18.40;35.70;;;;;;5093503;28;20451;-64
2021/04/30 04:16:50;;;;;;;8.95;3.65;;;18.40;35.70;;;;;;5094748;28;20369;-64
2021/04/30 04:19:17;;;;;;;6.82;3.40;;;18.40;35.70;;;;;;5094651;28;20103;-64
2021/04/30 04:21:43;;;;;;;6.82;3.53;;;18.40;35.70;;;;;;5094509;28;20528;-64
2021/04/30 04:24:09;;;;;;;7.88;3.75;;;18.40;35.70;;;;;;5093991;28;20056;-63
2021/04/30 04:26:34;;;;;;;9.30;3.80;;;18.50;35.70;;;;;;5094622;28;20028;-64
2021/04/30 04:29:00;;;;;;;8.77;3.75;;;18.40;35.70;;;;;;5094243;28;20496;-64
2021/04/30 04:31:26;;;;;;;8.80;3.75;;;18.50;35.70;;;;;;5094511;28;20016;-64
2021/04/30 04:33:51;;;;;;;6.57;3.60;;;18.50;35.70;;;;;;5094292;28;20024;-64
2021/04/30 04:36:17;;;;;;;7.35;3.90;;;18.50;35.70;;;;;;5094368;28;20028;-64
2021/04/30 04:38:42;;;;;;;8.15;3.80;;;18.50;35.70;;;;;;5094302;28;20103;-64
2021/04/30 04:41:08;;;;;;;7.85;3.40;;;18.50;35.70;;;;;;5094842;28;20059;-64
2021/04/30 04:43:33;;;;;;;9.30;3.90;;;18.50;35.70;;;;;;5094294;28;20016;-64
2021/04/30 04:45:59;;;;;;;8.43;3.78;;;18.50;35.70;;;;;;5094783;28;20059;-64
2021/04/30 04:48:24;;;;;;;7.25;3.65;;;18.50;35.70;;;;;;5093850;28;20039;-64
2021/04/30 04:50:50;;;;;;;10.05;3.58;;;18.50;35.70;;;;;;5094256;28;20031;-64
2021/04/30 04:53:16;;;;;;;8.02;3.30;;;18.50;35.80;;;;;;5094044;28;20031;-64
2021/04/30 04:55:41;;;;;;;8.05;3.40;;;18.50;35.70;;;;;;5094742;28;20027;-64
2021/04/30 04:58:07;;;;;;;8.35;4.00;;;18.50;35.70;;;;;;5094234;28;20020;-64
2021/04/30 05:00:33;;;;;;;6.32;3.38;;;18.50;35.70;;;;;;5093569;28;20126;-64
2021/04/30 05:02:59;;;;;;;7.55;3.88;;;18.50;35.70;;;;;;5094389;28;20058;-64
2021/04/30 05:05:26;;;;;;;7.30;3.45;;;18.50;35.70;;;;;;5093967;28;20131;-64
2021/04/30 05:07:52;;;;;;;8.15;3.90;;;18.50;35.70;;;;;;5093752;28;20042;-64
2021/04/30 05:10:19;;;;;;;9.75;4.13;;;18.50;35.80;;;;;;5093899;28;20028;-64
2021/04/30 05:12:46;;;;;;;9.52;3.88;;;18.50;35.70;;;;;;5094101;28;20233;-64
2021/04/30 05:15:13;;;;;;;8.68;3.63;;;18.50;35.70;;;;;;5099459;28;20165;-64
2021/04/30 05:17:38;;;;;;;8.52;4.05;;;18.50;35.70;;;;;;5093760;28;20472;-64
2021/04/30 05:20:05;;;;;;;7.75;3.92;;;18.50;35.70;;;;;;5093336;28;20035;-64
2021/04/30 05:22:30;;;;;;;7.03;3.80;;;18.60;35.70;;;;;;5093460;28;20125;-64
2021/04/30 05:24:56;;;;;;;8.73;3.70;;;18.50;35.70;;;;;;5093232;28;20422;-64
2021/04/30 05:27:21;;;;;;;7.38;3.67;;;18.50;35.80;;;;;;5093608;28;20864;-64
2021/04/30 05:29:47;;;;;;;10.73;4.20;;;18.60;35.70;;;;;;5093621;28;20034;-64
2021/04/30 05:32:13;;;;;;;8.10;3.80;;;18.60;35.80;;;;;;5093405;28;20118;-64
2021/04/30 05:34:40;;;;;;;8.73;3.75;;;18.60;35.70;;;;;;5093287;28;20035;-65
2021/04/30 05:37:07;;;;;;;10.50;4.35;;;18.60;35.70;;;;;;5093485;28;20446;-64
2021/04/30 05:39:34;;;;;;;8.65;3.75;;;18.60;35.70;;;;;;5091994;28;20447;-64
2021/04/30 05:42:00;;;;;;;9.02;4.25;;;18.60;35.70;;;;;;5093521;28;20095;-64
2021/04/30 05:44:25;;;;;;;7.82;4.32;;;18.60;35.70;;;;;;5093108;28;20071;-64
2021/04/30 05:46:51;;;;;;;8.20;3.80;;;18.60;35.70;;;;;;5093486;28;20028;-64
2021/04/30 05:49:16;;;;;;;8.30;4.00;;;18.60;35.70;;;;;;5093264;28;20390;-64
2021/04/30 05:51:42;;;;;;;8.40;3.67;;;18.60;35.70;;;;;;5093655;28;20114;-64
2021/04/30 05:54:07;;;;;;;8.85;4.68;;;18.60;35.80;;;;;;5093107;28;20059;-64
2021/04/30 05:56:33;;;;;;;9.15;4.03;;;18.60;35.70;;;;;;5093132;28;20356;-64
2021/04/30 05:58:59;;;;;;;8.35;4.22;;;18.60;35.80;;;;;;5092772;28;20035;-64
2021/04/30 06:01:24;;;;;;;9.15;3.95;;;18.60;35.80;;;;;;5092938;28;20035;-64
2021/04/30 06:03:50;;;;;;;7.78;4.10;;;18.60;35.80;;;;;;5093343;28;20051;-64
2021/04/30 06:06:16;;;;;;;9.77;4.38;;;18.70;35.80;;;;;;5092899;28;20024;-64
2021/04/30 06:08:41;;;;;;;9.70;4.30;;;18.60;35.70;;;;;;5092864;28;20038;-64
2021/04/30 06:11:07;;;;;;;9.60;3.95;;;18.70;35.70;;;;;;5092827;28;20181;-64
2021/04/30 06:13:33;;;;;;;10.25;5.07;;;18.60;35.80;;;;;;5092754;28;20036;-64
2021/04/30 06:15:58;;;;;;;8.70;4.47;;;18.70;35.80;;;;;;5093334;28;20421;-64
2021/04/30 06:18:24;;;;;;;9.65;5.07;;;18.60;35.70;;;;;;5093066;28;20182;-64
2021/04/30 06:20:49;;;;;;;11.20;5.07;;;18.70;35.80;;;;;;5093250;28;20043;-65
2021/04/30 06:23:15;;;;;;;9.07;4.20;;;18.70;35.80;;;;;;5095838;28;20067;-65
2021/04/30 06:25:40;;;;;;;8.82;4.50;;;18.60;35.80;;;;;;5096718;28;20364;-64
2021/04/30 06:28:06;;;;;;;10.20;4.82;;;18.60;35.80;;;;;;5094916;28;20039;-64
2021/04/30 06:30:32;;;;;;;9.68;5.15;;;18.70;35.80;;;;;;5092993;28;20028;-64
2021/04/30 06:32:57;;;;;;;10.40;5.18;;;18.70;35.80;;;;;;5092579;28;20032;-64
2021/04/30 06:35:23;;;;;;;8.40;4.57;;;18.70;35.80;;;;;;5092859;28;20383;-64
2021/04/30 06:37:48;;;;;;;11.82;5.50;;;18.70;35.80;;;;;;5094311;28;20096;-64
2021/04/30 06:40:14;;;;;;;10.20;4.90;;;18.70;35.80;;;;;;5096630;28;20024;-64
2021/04/30 06:42:39;;;;;;;11.82;4.90;;;18.70;35.80;;;;;;5096163;28;20089;-64
2021/04/30 06:45:06;;;;;;;8.25;4.63;;;18.70;35.80;;;;;;5096084;28;20459;-64
2021/04/30 06:47:34;;;;;;;11.32;5.30;;;18.70;35.90;;;;;;5096248;28;20030;-64
2021/04/30 06:49:59;;;;;;;11.02;4.90;;;18.70;35.80;;;;;;5094874;28;20846;-64
2021/04/30 06:52:25;;;;;;;11.95;5.40;;;18.70;35.80;;;;;;5096256;28;20058;-64
2021/04/30 06:54:50;;;;;;;10.30;5.40;;;18.80;35.80;;;;;;5096468;28;20479;-64
2021/04/30 06:57:17;;;;;;;11.20;5.97;;;18.80;35.80;;;;;;5096032;28;20081;-64
2021/04/30 06:59:43;;;;;;;10.05;4.75;;;18.70;35.80;;;;;;5094827;28;20035;-64
2021/04/30 07:02:10;;;;;;;11.60;5.47;;;18.70;35.80;;;;;;5095805;28;20024;-64
2021/04/30 07:04:36;;;;;;;12.55;5.72;;;18.70;35.80;;;;;;5095641;28;20050;-64
2021/04/30 07:07:01;;;;;;;12.20;5.05;;;18.80;35.80;;;;;;5095863;28;20031;-63
2021/04/30 07:09:27;;;;;;;11.02;5.10;;;18.80;35.80;;;;;;5095777;28;20368;-64
2021/04/30 07:11:53;;;;;;;10.80;5.50;;;18.80;35.80;;;;;;5096102;28;20069;-65
2021/04/30 07:14:18;;;;;;;12.05;6.35;;;18.70;35.80;;;;;;5095903;28;20024;-65
2021/04/30 07:16:44;;;;;;;12.68;5.47;;;18.80;35.90;;;;;;5096212;28;20032;-64
2021/04/30 07:19:09;;;;;;;15.45;6.30;;;18.80;35.80;;;;;;5096045;28;20075;-65
2021/04/30 07:21:35;;;;;;;12.80;6.05;;;18.80;35.80;;;;;;5095727;28;20028;-65
2021/04/30 07:24:00;;;;;;;14.40;5.78;;;18.80;35.90;;;;;;5095408;28;20423;-64
2021/04/30 07:26:26;;;;;;;13.77;5.85;;;18.80;35.80;;;;;;5093995;28;20020;-64
2021/04/30 07:28:51;;;;;;;10.57;5.25;;;18.80;35.90;;;;;;5095091;28;20036;-64
2021/04/30 07:31:17;;;;;;;11.30;5.95;;;18.80;35.90;;;;;;5095466;28;20028;-64
2021/04/30 07:33:46;;;;;;;11.65;5.68;;;18.80;35.80;;;;;;5095315;28;20030;-63
2021/04/30 07:36:13;;;;;;;9.38;5.60;;;18.80;35.90;;;;;;5095386;28;20012;-63
2021/04/30 07:38:39;;;;;;;9.23;4.85;;;18.80;35.80;;;;;;5095484;28;20024;-63
2021/04/30 07:41:05;;;;;;;11.65;6.10;;;18.80;35.80;;;;;;5095061;28;20024;-63
2021/04/30 07:43:31;;;;;;;14.45;6.88;;;18.80;35.80;;;;;;5095410;28;20028;-64
2021/04/30 07:45:59;;;;;;;12.55;6.47;;;18.80;35.80;;;;;;5095595;28;20021;-65
2021/04/30 07:48:24;;;;;;;11.93;5.82;;;18.80;35.80;;;;;;5094859;28;20043;-64
2021/04/30 07:50:50;;;;;;;13.27;6.40;;;18.80;35.80;;;;;;5094845;28;20104;-65
2021/04/30 07:53:15;;;;;;;10.43;5.78;;;18.80;35.80;;;;;;5094802;28;20035;-65
2021/04/30 07:55:41;;;;;;;11.57;6.07;;;18.80;35.80;;;;;;5094676;28;20028;-65
2021/04/30 07:58:06;;;;;;;13.18;6.05;;;18.80;35.80;;;;;;5095045;28;20422;-63
2021/04/30 08:00:32;;;;;;;13.20;6.30;;;18.80;35.80;;;;;;5094858;28;20028;-64
2021/04/30 08:02:58;;;;;;;12.90;6.40;;;18.80;35.80;;;;;;5094740;28;20415;-65
2021/04/30 08:05:23;;;;;;;14.07;7.63;;;18.80;35.80;;;;;;5094632;28;20023;-65
2021/04/30 08:07:49;;;;;;;11.27;6.63;;;18.90;35.90;;;;;;5094603;28;20031;-65
2021/04/30 08:10:15;;;;;;;12.98;6.50;;;18.90;35.80;;;;;;5093274;28;20040;-65
2021/04/30 08:12:41;;;;;;;12.50;6.47;;;18.90;35.80;;;;;;5094408;28;20085;-63
2021/04/30 08:15:08;;;;;;;14.77;6.95;;;18.90;35.90;;;;;;5094234;28;20031;-65
2021/04/30 08:17:34;;;;;;;14.95;7.07;;;18.80;35.90;;;;;;5094653;28;20077;-65
2021/04/30 08:20:00;;;;;;;12.68;6.90;;;18.90;35.90;;;;;;5094311;28;20051;-65
2021/04/30 08:22:26;;;;;;;15.07;7.18;;;18.90;35.90;;;;;;5094474;28;20182;-65
2021/04/30 08:24:52;;;;;;;12.95;6.18;;;18.90;35.80;;;;;;5094168;28;20017;-65
2021/04/30 08:27:20;;;;;;;14.40;7.68;;;18.90;35.80;;;;;;5094288;28;20052;-64
2021/04/30 08:29:46;;;;;;;14.68;6.85;;;18.90;35.90;;;;;;5094996;28;20101;-65
2021/04/30 08:32:12;;;;;;;13.40;6.72;;;18.90;35.90;;;;;;5094175;28;20055;-64
2021/04/30 08:34:37;;;;;;;17.02;6.70;;;18.90;35.90;;;;;;5093845;28;20057;-64
2021/04/30 08:37:03;;;;;;;13.98;7.05;;;18.90;35.90;;;;;;5093000;28;20036;-64
2021/04/30 08:39:28;;;;;;;12.18;6.53;;;18.90;35.90;;;;;;5094114;28;20020;-64
2021/04/30 08:41:55;;;;;;;12.63;6.70;;;18.90;35.90;;;;;;5094200;28;20035;-63
2021/04/30 08:44:20;;;;;;;15.60;7.20;;;18.90;35.90;;;;;;5093947;28;20115;-63
2021/04/30 08:46:46;;;;;;;12.68;6.85;;;18.90;35.90;;;;;;5093722;28;20116;-63
2021/04/30 08:49:11;;;;;;;13.00;7.18;;;18.90;35.90;;;;;;5094012;28;20036;-63
2021/04/30 08:51:39;;;;;;;13.40;7.10;;;18.90;35.90;;;;;;5093683;28;20102;-63
2021/04/30 08:54:06;;;;;;;13.20;6.47;;;18.90;35.90;;;;;;5094199;28;20070;-64
2021/04/30 08:56:32;;;;;;;13.05;6.72;;;18.90;35.90;;;;;;5094257;28;20020;-63
2021/04/30 08:59:00;;;;;;;13.90;7.38;;;18.90;35.90;;;;;;5099529;28;20019;-64
2021/04/30 09:01:26;;;;;;;14.50;6.45;;;18.90;36.00;;;;;;5093679;28;20024;-63
2021/04/30 09:03:52;;;;;;;15.38;7.03;;;18.90;35.90;;;;;;5093872;28;20051;-64
2021/04/30 09:06:36;;;;;;;11.77;6.85;;;18.90;35.90;;;;;;5094263;28;20020;-64
2021/04/30 09:09:11;;;;;;;13.60;6.80;;;18.90;35.90;;;;;;5093867;28;20123;-64
2021/04/30 09:11:47;;;;;;;15.55;7.43;;;18.90;35.90;;;;;;5093311;28;20449;-64
2021/04/30 09:14:26;;;;;;;12.25;6.60;;;18.90;35.90;;;;;;5094123;28;20098;-64
2021/04/30 09:17:14;;;;;;;12.13;6.65;;;18.90;36.00;;;;;;5094007;28;20410;-64
2021/04/30 09:19:52;;;;;;;14.35;7.00;;;18.90;36.00;;;;;;5092516;28;20115;-63
2021/04/30 09:22:23;;;;;;;13.93;7.13;;;18.90;35.90;;;;;;5093909;28;20111;-63
2021/04/30 09:24:57;;;;;;;15.13;7.13;;;18.90;35.90;;;;;;5094680;28;20039;-64
2021/04/30 09:27:29;;;;;;;11.13;6.32;;;19.00;35.90;;;;;;5101846;28;20035;-64
2021/04/30 09:30:26;;;;;;;16.83;7.63;;;19.00;35.90;;;;;;5102226;28;20040;-63
2021/04/30 09:33:06;;;;;;;12.65;7.45;;;19.00;35.90;;;;;;5094080;28;20023;-63
2021/04/30 09:35:53;;;;;;;12.55;7.00;;;19.00;35.90;;;;;;5093714;28;20020;-64
2021/04/30 09:38:27;;;;;;;14.25;6.60;;;19.00;35.80;;;;;;5091992;28;20452;-64
2021/04/30 09:41:08;;;;;;;13.82;7.22;;;19.00;35.80;;;;;;5092829;28;20028;-64
2021/04/30 09:43:51;;;;;;;14.57;6.60;;;19.00;35.80;;;;;;5091235;28;20380;-64
2021/04/30 09:46:30;;;;;;;12.07;6.30;;;19.00;35.80;;;;;;5091216;28;20024;-64
2021/04/30 09:48:59;;;;;;;13.02;7.13;;;19.00;35.80;;;;;;5092366;28;20028;-64
2021/04/30 09:51:44;;;;;;;12.98;7.35;;;19.00;35.80;;;;;;5092598;28;20027;-64
2021/04/30 09:54:17;;;;;;;11.43;6.20;;;19.00;35.90;;;;;;5092528;28;20028;-64
2021/04/30 09:56:43;;;;;;;14.25;6.70;;;19.00;35.80;;;;;;5092730;28;20021;-64
2021/04/30 09:59:08;;;;;;;14.82;7.30;;;19.00;35.80;;;;;;5092489;28;20032;-64
2021/04/30 10:01:34;;;;;;;13.93;7.22;;;19.00;35.80;;;;;;5092662;28;20027;-64
2021/04/30 10:03:59;;;;;;;14.68;6.93;;;19.00;35.80;;;;;;5091165;28;20016;-64
2021/04/30 10:06:25;;;;;;;12.95;7.03;;;19.10;35.80;;;;;;5092471;28;20032;-64
2021/04/30 10:09:06;;;;;;;14.93;7.22;;;19.10;35.70;;;;;;5092322;28;20556;-64
2021/04/30 10:11:35;;;;;;;14.18;7.13;;;19.10;35.60;;;;;;5092525;28;20024;-64
2021/04/30 10:14:01;;;;;;;16.35;7.18;;;19.20;35.60;;;;;;5096889;28;20053;-63
2021/04/30 10:16:28;;;;;;;13.60;7.35;;;19.20;35.60;;;;;;5096809;28;20020;-64
2021/04/30 10:18:53;;;;;;;13.68;7.40;;;19.20;35.60;;;;;;5096865;28;20028;-64
2021/04/30 10:21:20;;;;;;;13.48;7.32;;;19.30;35.60;;;;;;5096656;28;20024;-64
2021/04/30 10:23:50;;;;;;;14.13;7.03;;;19.20;35.60;;;;;;5096551;28;20044;-64
2021/04/30 10:26:17;;;;;;;14.10;7.68;;;19.20;35.60;;;;;;5096783;28;20475;-64
2021/04/30 10:28:48;;;;;;;12.85;6.80;;;19.20;35.60;;;;;;5096476;28;20031;-64
2021/04/30 10:31:16;;;;;;;17.08;7.65;;;19.30;35.60;;;;;;5095170;28;20543;-64
2021/04/30 10:33:51;;;;;;;12.30;6.05;;;19.30;35.60;;;;;;5096580;28;20047;-64
2021/04/30 10:36:28;;;;;;;;;;;19.30;35.60;;;;;;5097028;28;20028;-64
2021/04/30 10:38:55;;;;;;;16.00;8.38;;;19.20;35.60;;;;;;5096573;28;19914;-64
2021/04/30 10:41:48;;;;;;;13.82;7.00;;;19.20;35.70;;;;;;5096233;28;20024;-64
2021/04/30 10:44:32;;;;;;;15.48;7.32;;;19.20;35.70;;;;;;5093846;28;20065;-64
2021/04/30 10:47:12;;;;;;;12.55;6.50;;;19.20;35.70;;;;;;5096195;28;20012;-64
2021/04/30 10:49:39;;;;;;;15.00;7.70;;;19.20;35.70;;;;;;5096312;28;20306;-64
2021/04/30 10:52:05;;;;;;;13.95;7.32;;;19.20;35.70;;;;;;5096120;28;20121;-63
2021/04/30 10:54:31;;;;;;;13.07;7.03;;;19.30;35.70;;;;;;5096300;28;20169;-68
2021/04/30 10:57:10;;;;;;;14.02;6.10;;;19.20;35.60;;;;;;5096040;28;20027;-64
2021/04/30 10:59:35;;;;;;;14.13;6.85;;;19.30;35.60;;;;;;5096188;28;20053;-65
2021/04/30 11:02:11;;;;;;;14.30;7.57;;;19.30;35.60;;;;;;5095902;28;20375;-64
2021/04/30 11:04:37;;;;;;;16.42;7.38;;;19.30;35.60;;;;;;5095905;28;20502;-64
2021/04/30 11:07:04;;;;;;;12.73;6.10;;;19.30;35.70;;;;;;5095734;28;20472;-64
2021/04/30 11:09:39;;;;;;;14.93;7.53;;;19.30;35.70;;;;;;5095806;28;20040;-64
2021/04/30 11:12:17;;;;;;;12.43;6.55;;;19.30;35.70;;;;;;5096081;28;20052;-64
2021/04/30 11:15:15;;;;;;;12.27;6.85;;;19.30;35.70;;;;;;5095618;28;20028;-65
2021/04/30 11:17:49;;;;;;;13.52;7.05;;;19.30;35.60;;;;;;5094925;28;20032;-64
2021/04/30 11:20:17;;;;;;;14.15;7.13;;;19.30;35.70;;;;;;5095594;28;20055;-63
2021/04/30 11:23:03;;;;;;;12.27;6.50;;;19.30;35.70;;;;;;5094731;28;20070;-64
2021/04/30 11:25:28;;;;;;;15.30;7.43;;;19.30;35.70;;;;;;5095077;28;20531;-65
2021/04/30 11:27:55;;;;;;;12.48;6.72;;;19.20;35.70;;;;;;5095415;28;20107;-64
2021/04/30 11:30:22;;;;;;;12.75;6.93;;;19.30;35.70;;;;;;5095803;28;20380;-64
2021/04/30 11:32:53;;;;;;;14.40;7.55;;;19.30;35.70;;;;;;5095387;28;20020;-64
2021/04/30 11:35:20;;;;;;;13.77;7.40;;;19.30;35.70;;;;;;5100864;28;20467;-65
2021/04/30 11:37:48;;;;;;;14.50;7.30;;;19.30;35.70;;;;;;5100675;28;20032;-65
2021/04/30 11:40:14;;;;;;;13.85;7.55;;;19.30;35.70;;;;;;5095990;28;20047;-64
2021/04/30 11:42:40;;;;;;;14.13;7.18;;;19.40;35.70;;;;;;5096415;28;20041;-64
2021/04/30 11:45:07;;;;;;;14.65;7.07;;;19.30;35.70;;;;;;5095065;28;20048;-64
2021/04/30 11:47:35;;;;;;;14.63;7.53;;;19.30;35.70;;;;;;5095014;28;20039;-64
2021/04/30 11:50:02;;;;;;;14.73;7.57;;;19.30;35.70;;;;;;5098634;28;20040;-64
2021/04/30 11:52:41;;;;;;;14.50;7.07;;;19.40;35.70;;;;;;5095402;28;20025;-64
2021/04/30 11:55:10;;;;;;;13.73;6.95;;;19.40;35.70;;;;;;5095158;28;20024;-64
2021/04/30 11:57:37;;;;;;;13.15;7.05;;;19.40;35.70;;;;;;5094779;28;20028;-64
2021/04/30 12:00:09;;;;;;;13.18;7.03;;;19.40;35.70;;;;;;5094444;28;20438;-65
2021/04/30 12:02:35;;;;;;;11.75;6.45;;;19.40;35.70;;;;;;5094629;28;20575;-64
2021/04/30 12:05:00;;;;;;;13.25;6.72;;;19.50;35.60;;;;;;5094554;28;20016;-65
2021/04/30 12:07:26;;;;;;;13.32;7.15;;;19.50;35.60;;;;;;5094651;28;20035;-64
2021/04/30 12:09:53;;;;;;;13.13;6.47;;;19.50;35.60;;;;;;5094908;28;20028;-65
2021/04/30 12:12:20;;;;;;;13.45;6.85;;;19.60;35.50;;;;;;5094340;28;20043;-64
2021/04/30 12:15:00;;;;;;;13.57;7.45;;;19.80;35.30;;;;;;5094551;28;20060;-64
2021/04/30 12:17:40;;;;;;;13.82;7.20;;;19.90;35.30;;;;;;5094961;28;20084;-64
2021/04/30 12:20:13;;;;;;;13.50;7.05;;;19.90;35.30;;;;;;5094779;28;20051;-64
2021/04/30 12:23:03;;;;;;;12.27;6.87;;;19.90;35.30;;;;;;5095165;28;20044;-64
2021/04/30 12:25:34;;;;;;;14.60;7.25;;;19.80;35.40;;;;;;5093945;28;20107;-64
2021/04/30 12:28:22;;;;;;;12.90;7.32;;;19.80;35.40;;;;;;5094199;28;20024;-64
2021/04/30 12:30:52;;;;;;;12.93;7.30;;;19.90;35.40;;;;;;5093999;28;20392;-64
2021/04/30 12:33:38;;;;;;;14.15;7.15;;;20.00;35.30;;;;;;5098431;28;20031;-64
2021/04/30 12:36:07;;;;;;;13.05;7.15;;;20.00;35.10;;;;;;5092287;28;20104;-64
2021/04/30 12:38:33;;;;;;;12.02;6.60;;;20.10;35.00;;;;;;5094125;28;20024;-64
2021/04/30 12:41:29;;;;;;;13.48;6.65;;;20.10;35.00;;;;;;5094363;28;20020;-64
2021/04/30 12:43:57;;;;;;;12.45;6.78;;;20.20;34.90;;;;;;5091451;28;20112;-64
2021/04/30 12:46:30;;;;;;;13.73;7.03;;;20.30;34.90;;;;;;5093960;28;20035;-65